sensor_id;sensor_type;location;lat;lon;timestamp;P1;durP1;ratioP1;P2;durP2;ratioP2
27412;SDS011;14871;52.702;5.230;2024-03-08T02:43:32;32.92;;;19.55;;
27412;SDS011;14871;52.702;5.230;2024-03-08T02:45:59;34.38;;;21.30;;
27412;SDS011;14871;52.702;5.230;2024-03-08T02:48:24;35.45;;;19.25;;
27412;SDS011;14871;52.702;5.230;2024-03-08T02:50:50;36.95;;;21.63;;
27412;SDS011;14871;52.702;5.230;2024-03-08T02:53:17;36.58;;;21.65;;
27412;SDS011;14871;52.702;5.230;2024-03-08T02:55:43;35.70;;;21.63;;
27412;SDS011;14871;52.702;5.230;2024-03-08T02:58:09;35.40;;;21.95;;
27412;SDS011;14871;52.702;5.230;2024-03-08T03:00:36;36.83;;;21.75;;
27412;SDS011;14871;52.702;5.230;2024-03-08T03:03:03;32.53;;;21.10;;
27412;SDS011;14871;52.702;5.230;2024-03-08T03:05:29;41.38;;;21.52;;
27412;SDS011;14871;52.702;5.230;2024-03-08T03:07:55;37.00;;;21.58;;
27412;SDS011;14871;52.702;5.230;2024-03-08T03:10:21;37.47;;;22.10;;
27412;SDS011;14871;52.702;5.230;2024-03-08T03:12:47;34.35;;;22.73;;
27412;SDS011;14871;52.702;5.230;2024-03-08T03:15:16;34.92;;;21.23;;
27412;SDS011;14871;52.702;5.230;2024-03-08T03:17:49;35.45;;;22.60;;
27412;SDS011;14871;52.702;5.230;2024-03-08T03:20:18;37.63;;;21.90;;
27412;SDS011;14871;52.702;5.230;2024-03-08T03:23:05;40.92;;;21.98;;
27412;SDS011;14871;52.702;5.230;2024-03-08T03:25:33;43.10;;;24.38;;
27412;SDS011;14871;52.702;5.230;2024-03-08T03:28:00;39.97;;;23.25;;
27412;SDS011;14871;52.702;5.230;2024-03-08T03:30:29;35.35;;;22.42;;
27412;SDS011;14871;52.702;5.230;2024-03-08T03:32:58;38.28;;;23.75;;
27412;SDS011;14871;52.702;5.230;2024-03-08T03:35:31;37.33;;;24.15;;
27412;SDS011;14871;52.702;5.230;2024-03-08T03:37:57;37.70;;;23.75;;
27412;SDS011;14871;52.702;5.230;2024-03-08T03:40:29;39.95;;;23.75;;
27412;SDS011;14871;52.702;5.230;2024-03-08T03:42:55;39.15;;;23.45;;
27412;SDS011;14871;52.702;5.230;2024-03-08T03:45:21;43.10;;;23.85;;
27412;SDS011;14871;52.702;5.230;2024-03-08T03:47:47;36.88;;;22.77;;
27412;SDS011;14871;52.702;5.230;2024-03-08T03:50:14;35.22;;;21.88;;
27412;SDS011;14871;52.702;5.230;2024-03-08T03:52:40;35.45;;;22.60;;
27412;SDS011;14871;52.702;5.230;2024-03-08T03:55:07;41.63;;;23.30;;
27412;SDS011;14871;52.702;5.230;2024-03-08T03:57:33;41.22;;;24.15;;
27412;SDS011;14871;52.702;5.230;2024-03-08T03:59:59;39.22;;;22.38;;
27412;SDS011;14871;52.702;5.230;2024-03-08T04:02:25;38.22;;;23.30;;
27412;SDS011;14871;52.702;5.230;2024-03-08T04:04:51;38.58;;;24.00;;
27412;SDS011;14871;52.702;5.230;2024-03-08T04:07:19;39.65;;;23.38;;
27412;SDS011;14871;52.702;5.230;2024-03-08T04:09:45;36.45;;;22.48;;
27412;SDS011;14871;52.702;5.230;2024-03-08T04:12:11;42.22;;;24.27;;
27412;SDS011;14871;52.702;5.230;2024-03-08T04:14:38;36.17;;;22.85;;
27412;SDS011;14871;52.702;5.230;2024-03-08T04:17:06;42.67;;;23.70;;
27412;SDS011;14871;52.702;5.230;2024-03-08T04:19:33;39.40;;;23.60;;
27412;SDS011;14871;52.702;5.230;2024-03-08T04:21:59;39.20;;;24.08;;
27412;SDS011;14871;52.702;5.230;2024-03-08T04:24:26;43.35;;;24.90;;
27412;SDS011;14871;52.702;5.230;2024-03-08T04:26:52;38.47;;;23.88;;
27412;SDS011;14871;52.702;5.230;2024-03-08T04:29:18;38.97;;;23.25;;
27412;SDS011;14871;52.702;5.230;2024-03-08T04:31:44;39.45;;;24.23;;
27412;SDS011;14871;52.702;5.230;2024-03-08T04:34:10;41.42;;;25.58;;
27412;SDS011;14871;52.702;5.230;2024-03-08T04:36:36;42.33;;;24.73;;
27412;SDS011;14871;52.702;5.230;2024-03-08T04:39:01;43.80;;;25.23;;
27412;SDS011;14871;52.702;5.230;2024-03-08T04:41:27;41.17;;;25.20;;
27412;SDS011;14871;52.702;5.230;2024-03-08T04:43:55;38.03;;;24.48;;
27412;SDS011;14871;52.702;5.230;2024-03-08T04:46:23;39.47;;;25.38;;
27412;SDS011;14871;52.702;5.230;2024-03-08T04:48:49;39.97;;;25.40;;
27412;SDS011;14871;52.702;5.230;2024-03-08T04:51:14;42.85;;;24.95;;
27412;SDS011;14871;52.702;5.230;2024-03-08T04:53:41;42.10;;;25.08;;
27412;SDS011;14871;52.702;5.230;2024-03-08T04:56:07;42.30;;;26.33;;
27412;SDS011;14871;52.702;5.230;2024-03-08T04:58:35;40.90;;;26.23;;
27412;SDS011;14871;52.702;5.230;2024-03-08T05:01:01;40.67;;;24.98;;
27412;SDS011;14871;52.702;5.230;2024-03-08T05:03:27;43.17;;;25.83;;
27412;SDS011;14871;52.702;5.230;2024-03-08T05:05:53;42.38;;;26.45;;
27412;SDS011;14871;52.702;5.230;2024-03-08T05:08:19;43.92;;;26.52;;
27412;SDS011;14871;52.702;5.230;2024-03-08T05:10:44;47.35;;;26.77;;
27412;SDS011;14871;52.702;5.230;2024-03-08T05:13:11;41.17;;;26.15;;
27412;SDS011;14871;52.702;5.230;2024-03-08T05:15:38;45.38;;;26.55;;
27412;SDS011;14871;52.702;5.230;2024-03-08T05:18:04;41.42;;;25.75;;
27412;SDS011;14871;52.702;5.230;2024-03-08T05:20:30;43.53;;;25.83;;
27412;SDS011;14871;52.702;5.230;2024-03-08T05:22:56;39.58;;;25.50;;
27412;SDS011;14871;52.702;5.230;2024-03-08T05:25:25;40.50;;;25.90;;
27412;SDS011;14871;52.702;5.230;2024-03-08T05:27:51;46.90;;;28.52;;
27412;SDS011;14871;52.702;5.230;2024-03-08T05:30:17;44.38;;;26.55;;
27412;SDS011;14871;52.702;5.230;2024-03-08T05:32:43;44.38;;;26.33;;
27412;SDS011;14871;52.702;5.230;2024-03-08T05:35:11;48.20;;;27.60;;
27412;SDS011;14871;52.702;5.230;2024-03-08T05:37:37;44.22;;;26.70;;
27412;SDS011;14871;52.702;5.230;2024-03-08T05:40:04;47.97;;;25.58;;
27412;SDS011;14871;52.702;5.230;2024-03-08T05:42:34;45.45;;;25.85;;
27412;SDS011;14871;52.702;5.230;2024-03-08T05:45:00;41.20;;;26.73;;
27412;SDS011;14871;52.702;5.230;2024-03-08T05:47:26;41.83;;;26.85;;
27412;SDS011;14871;52.702;5.230;2024-03-08T05:49:51;50.33;;;27.48;;
27412;SDS011;14871;52.702;5.230;2024-03-08T05:52:18;41.70;;;27.75;;
27412;SDS011;14871;52.702;5.230;2024-03-08T05:54:44;43.90;;;25.75;;
27412;SDS011;14871;52.702;5.230;2024-03-08T05:57:10;46.05;;;27.42;;
27412;SDS011;14871;52.702;5.230;2024-03-08T05:59:36;47.20;;;28.20;;
27412;SDS011;14871;52.702;5.230;2024-03-08T06:02:02;50.13;;;28.88;;
27412;SDS011;14871;52.702;5.230;2024-03-08T06:04:28;45.85;;;28.20;;
27412;SDS011;14871;52.702;5.230;2024-03-08T06:06:54;49.65;;;28.88;;
27412;SDS011;14871;52.702;5.230;2024-03-08T06:09:22;45.25;;;28.02;;
27412;SDS011;14871;52.702;5.230;2024-03-08T06:11:48;48.30;;;27.35;;
27412;SDS011;14871;52.702;5.230;2024-03-08T06:14:14;47.25;;;29.02;;
27412;SDS011;14871;52.702;5.230;2024-03-08T06:16:44;49.85;;;29.00;;
27412;SDS011;14871;52.702;5.230;2024-03-08T06:19:10;47.25;;;28.17;;
27412;SDS011;14871;52.702;5.230;2024-03-08T06:21:35;45.55;;;28.13;;
27412;SDS011;14871;52.702;5.230;2024-03-08T06:24:01;45.92;;;28.23;;
27412;SDS011;14871;52.702;5.230;2024-03-08T06:26:27;40.80;;;27.55;;
27412;SDS011;14871;52.702;5.230;2024-03-08T06:28:56;46.67;;;30.05;;
27412;SDS011;14871;52.702;5.230;2024-03-08T06:31:22;49.10;;;29.40;;
27412;SDS011;14871;52.702;5.230;2024-03-08T06:33:48;45.97;;;27.95;;
27412;SDS011;14871;52.702;5.230;2024-03-08T06:36:19;48.75;;;28.73;;
27412;SDS011;14871;52.702;5.230;2024-03-08T06:38:46;44.90;;;28.10;;
27412;SDS011;14871;52.702;5.230;2024-03-08T06:41:12;44.28;;;27.50;;
27412;SDS011;14871;52.702;5.230;2024-03-08T06:43:41;44.53;;;28.05;;
27412;SDS011;14871;52.702;5.230;2024-03-08T06:46:10;48.15;;;28.35;;
27412;SDS011;14871;52.702;5.230;2024-03-08T06:48:39;47.55;;;28.77;;
27412;SDS011;14871;52.702;5.230;2024-03-08T06:51:05;46.33;;;28.98;;
27412;SDS011;14871;52.702;5.230;2024-03-08T06:53:31;47.83;;;27.80;;
27412;SDS011;14871;52.702;5.230;2024-03-08T06:55:57;45.03;;;27.60;;
27412;SDS011;14871;52.702;5.230;2024-03-08T06:58:23;48.95;;;28.23;;
27412;SDS011;14871;52.702;5.230;2024-03-08T07:00:49;43.30;;;28.48;;
27412;SDS011;14871;52.702;5.230;2024-03-08T07:03:18;44.92;;;27.42;;
27412;SDS011;14871;52.702;5.230;2024-03-08T07:05:44;42.78;;;27.25;;
27412;SDS011;14871;52.702;5.230;2024-03-08T07:08:10;48.42;;;29.35;;
27412;SDS011;14871;52.702;5.230;2024-03-08T07:10:39;42.17;;;27.88;;
27412;SDS011;14871;52.702;5.230;2024-03-08T07:13:06;44.15;;;27.85;;
27412;SDS011;14871;52.702;5.230;2024-03-08T07:15:32;42.85;;;26.02;;
27412;SDS011;14871;52.702;5.230;2024-03-08T07:17:58;39.83;;;26.17;;
27412;SDS011;14871;52.702;5.230;2024-03-08T07:20:24;46.22;;;25.98;;
27412;SDS011;14871;52.702;5.230;2024-03-08T07:22:50;42.40;;;27.08;;
27412;SDS011;14871;52.702;5.230;2024-03-08T07:25:16;42.60;;;28.15;;
27412;SDS011;14871;52.702;5.230;2024-03-08T07:27:53;47.03;;;28.15;;
27412;SDS011;14871;52.702;5.230;2024-03-08T07:30:23;45.20;;;27.55;;
27412;SDS011;14871;52.702;5.230;2024-03-08T07:33:08;47.25;;;27.40;;
27412;SDS011;14871;52.702;5.230;2024-03-08T07:35:40;42.30;;;25.90;;
27412;SDS011;14871;52.702;5.230;2024-03-08T07:38:09;45.42;;;26.92;;
27412;SDS011;14871;52.702;5.230;2024-03-08T07:40:35;52.63;;;28.52;;
27412;SDS011;14871;52.702;5.230;2024-03-08T07:43:08;51.15;;;30.00;;
27412;SDS011;14871;52.702;5.230;2024-03-08T07:45:35;48.72;;;30.88;;
27412;SDS011;14871;52.702;5.230;2024-03-08T07:48:01;53.17;;;30.65;;
27412;SDS011;14871;52.702;5.230;2024-03-08T07:50:28;50.15;;;30.67;;
27412;SDS011;14871;52.702;5.230;2024-03-08T07:52:54;48.60;;;30.30;;
27412;SDS011;14871;52.702;5.230;2024-03-08T07:55:20;48.00;;;29.65;;
27412;SDS011;14871;52.702;5.230;2024-03-08T07:57:49;44.28;;;28.15;;
27412;SDS011;14871;52.702;5.230;2024-03-08T08:00:14;48.40;;;29.00;;
27412;SDS011;14871;52.702;5.230;2024-03-08T08:02:44;44.30;;;28.98;;
27412;SDS011;14871;52.702;5.230;2024-03-08T08:05:10;42.75;;;27.95;;
27412;SDS011;14871;52.702;5.230;2024-03-08T08:07:36;47.97;;;28.42;;
27412;SDS011;14871;52.702;5.230;2024-03-08T08:10:02;44.03;;;27.70;;
27412;SDS011;14871;52.702;5.230;2024-03-08T08:12:28;46.88;;;29.35;;
27412;SDS011;14871;52.702;5.230;2024-03-08T08:14:54;47.25;;;28.40;;
27412;SDS011;14871;52.702;5.230;2024-03-08T08:17:19;41.05;;;27.50;;
27412;SDS011;14871;52.702;5.230;2024-03-08T08:19:45;42.60;;;27.40;;
27412;SDS011;14871;52.702;5.230;2024-03-08T08:22:11;47.33;;;28.25;;
27412;SDS011;14871;52.702;5.230;2024-03-08T08:24:37;42.53;;;26.98;;
27412;SDS011;14871;52.702;5.230;2024-03-08T08:27:03;39.08;;;25.88;;
27412;SDS011;14871;52.702;5.230;2024-03-08T08:29:29;40.38;;;26.83;;
27412;SDS011;14871;52.702;5.230;2024-03-08T08:31:57;37.22;;;25.02;;
27412;SDS011;14871;52.702;5.230;2024-03-08T08:34:24;41.13;;;25.95;;
27412;SDS011;14871;52.702;5.230;2024-03-08T08:36:51;39.15;;;26.65;;
27412;SDS011;14871;52.702;5.230;2024-03-08T08:39:18;43.17;;;26.33;;
27412;SDS011;14871;52.702;5.230;2024-03-08T08:41:43;39.35;;;24.88;;
27412;SDS011;14871;52.702;5.230;2024-03-08T08:44:09;41.08;;;26.23;;
27412;SDS011;14871;52.702;5.230;2024-03-08T08:46:37;40.35;;;26.08;;
27412;SDS011;14871;52.702;5.230;2024-03-08T08:49:03;41.58;;;26.88;;
27412;SDS011;14871;52.702;5.230;2024-03-08T08:51:30;41.30;;;26.25;;
27412;SDS011;14871;52.702;5.230;2024-03-08T08:53:58;38.78;;;26.75;;
27412;SDS011;14871;52.702;5.230;2024-03-08T08:56:24;36.88;;;24.65;;
27412;SDS011;14871;52.702;5.230;2024-03-08T08:58:50;39.70;;;25.55;;
27412;SDS011;14871;52.702;5.230;2024-03-08T09:01:18;38.42;;;25.05;;
27412;SDS011;14871;52.702;5.230;2024-03-08T09:03:44;39.67;;;26.15;;
27412;SDS011;14871;52.702;5.230;2024-03-08T09:06:11;37.20;;;24.85;;
27412;SDS011;14871;52.702;5.230;2024-03-08T09:08:41;40.67;;;25.30;;
27412;SDS011;14871;52.702;5.230;2024-03-08T09:11:07;36.47;;;24.58;;
27412;SDS011;14871;52.702;5.230;2024-03-08T09:13:33;37.88;;;24.13;;
27412;SDS011;14871;52.702;5.230;2024-03-08T09:15:59;37.70;;;24.90;;
27412;SDS011;14871;52.702;5.230;2024-03-08T09:18:24;35.70;;;24.67;;
27412;SDS011;14871;52.702;5.230;2024-03-08T09:20:51;37.83;;;26.63;;
27412;SDS011;14871;52.702;5.230;2024-03-08T09:23:21;40.30;;;24.58;;
27412;SDS011;14871;52.702;5.230;2024-03-08T09:25:46;42.40;;;24.92;;
27412;SDS011;14871;52.702;5.230;2024-03-08T09:28:12;36.13;;;25.02;;
27412;SDS011;14871;52.702;5.230;2024-03-08T09:30:39;35.33;;;24.80;;
27412;SDS011;14871;52.702;5.230;2024-03-08T09:33:05;35.95;;;24.33;;
27412;SDS011;14871;52.702;5.230;2024-03-08T09:35:31;38.00;;;25.77;;
27412;SDS011;14871;52.702;5.230;2024-03-08T09:37:57;36.22;;;24.23;;
27412;SDS011;14871;52.702;5.230;2024-03-08T09:40:22;35.10;;;24.83;;
27412;SDS011;14871;52.702;5.230;2024-03-08T09:42:50;39.65;;;25.35;;
27412;SDS011;14871;52.702;5.230;2024-03-08T09:45:17;37.92;;;26.33;;
27412;SDS011;14871;52.702;5.230;2024-03-08T09:47:47;35.08;;;23.83;;
27412;SDS011;14871;52.702;5.230;2024-03-08T09:50:16;38.15;;;24.90;;
27412;SDS011;14871;52.702;5.230;2024-03-08T09:52:43;37.92;;;25.38;;
27412;SDS011;14871;52.702;5.230;2024-03-08T09:55:14;35.53;;;24.92;;
27412;SDS011;14871;52.702;5.230;2024-03-08T09:57:43;33.60;;;24.33;;
27412;SDS011;14871;52.702;5.230;2024-03-08T10:00:27;35.80;;;24.75;;
27412;SDS011;14871;52.702;5.230;2024-03-08T10:02:53;37.88;;;25.42;;
27412;SDS011;14871;52.702;5.230;2024-03-08T10:05:19;34.85;;;25.10;;
27412;SDS011;14871;52.702;5.230;2024-03-08T10:07:47;39.47;;;26.35;;
27412;SDS011;14871;52.702;5.230;2024-03-08T10:10:12;38.75;;;24.88;;
27412;SDS011;14871;52.702;5.230;2024-03-08T10:12:38;35.15;;;24.90;;
27412;SDS011;14871;52.702;5.230;2024-03-08T10:15:07;39.92;;;24.92;;
27412;SDS011;14871;52.702;5.230;2024-03-08T10:17:36;36.45;;;25.65;;
27412;SDS011;14871;52.702;5.230;2024-03-08T10:20:02;36.13;;;24.73;;
27412;SDS011;14871;52.702;5.230;2024-03-08T10:22:29;35.60;;;24.60;;
27412;SDS011;14871;52.702;5.230;2024-03-08T10:24:56;35.45;;;24.13;;
27412;SDS011;14871;52.702;5.230;2024-03-08T10:27:22;32.53;;;24.50;;
27412;SDS011;14871;52.702;5.230;2024-03-08T10:29:48;35.55;;;25.05;;
27412;SDS011;14871;52.702;5.230;2024-03-08T10:32:15;34.25;;;25.50;;
27412;SDS011;14871;52.702;5.230;2024-03-08T10:34:41;32.38;;;23.65;;
27412;SDS011;14871;52.702;5.230;2024-03-08T10:37:07;33.13;;;24.45;;
27412;SDS011;14871;52.702;5.230;2024-03-08T10:39:37;37.28;;;26.10;;
27412;SDS011;14871;52.702;5.230;2024-03-08T10:42:04;37.72;;;24.85;;
27412;SDS011;14871;52.702;5.230;2024-03-08T10:44:40;33.47;;;24.48;;
27412;SDS011;14871;52.702;5.230;2024-03-08T10:47:19;35.80;;;25.10;;
27412;SDS011;14871;52.702;5.230;2024-03-08T10:49:59;37.42;;;25.13;;
27412;SDS011;14871;52.702;5.230;2024-03-08T10:52:29;35.65;;;24.95;;
27412;SDS011;14871;52.702;5.230;2024-03-08T10:54:56;35.03;;;24.73;;
27412;SDS011;14871;52.702;5.230;2024-03-08T10:57:23;32.58;;;24.58;;
27412;SDS011;14871;52.702;5.230;2024-03-08T10:59:49;34.88;;;25.27;;
27412;SDS011;14871;52.702;5.230;2024-03-08T11:02:17;35.08;;;25.02;;
27412;SDS011;14871;52.702;5.230;2024-03-08T11:04:48;35.00;;;24.45;;
27412;SDS011;14871;52.702;5.230;2024-03-08T11:07:15;39.17;;;25.02;;
27412;SDS011;14871;52.702;5.230;2024-03-08T11:09:45;33.10;;;23.90;;
27412;SDS011;14871;52.702;5.230;2024-03-08T11:12:23;33.15;;;24.27;;
27412;SDS011;14871;52.702;5.230;2024-03-08T11:15:00;37.08;;;25.40;;
27412;SDS011;14871;52.702;5.230;2024-03-08T11:19:57;33.78;;;24.17;;
27412;SDS011;14871;52.702;5.230;2024-03-08T11:22:31;34.10;;;24.30;;
27412;SDS011;14871;52.702;5.230;2024-03-08T11:24:58;30.00;;;23.25;;
27412;SDS011;14871;52.702;5.230;2024-03-08T11:27:29;35.47;;;24.48;;
27412;SDS011;14871;52.702;5.230;2024-03-08T11:30:03;34.22;;;25.48;;
27412;SDS011;14871;52.702;5.230;2024-03-08T11:32:50;34.75;;;24.77;;
27412;SDS011;14871;52.702;5.230;2024-03-08T11:35:21;34.13;;;23.60;;
27412;SDS011;14871;52.702;5.230;2024-03-08T11:37:50;37.00;;;24.15;;
27412;SDS011;14871;52.702;5.230;2024-03-08T11:40:15;38.70;;;26.75;;
27412;SDS011;14871;52.702;5.230;2024-03-08T11:42:48;34.47;;;24.73;;
27412;SDS011;14871;52.702;5.230;2024-03-08T11:45:17;30.58;;;23.77;;
27412;SDS011;14871;52.702;5.230;2024-03-08T11:47:46;32.15;;;23.38;;
27412;SDS011;14871;52.702;5.230;2024-03-08T11:50:12;34.53;;;23.02;;
27412;SDS011;14871;52.702;5.230;2024-03-08T11:52:38;31.02;;;23.80;;
27412;SDS011;14871;52.702;5.230;2024-03-08T11:55:04;29.85;;;23.48;;
27412;SDS011;14871;52.702;5.230;2024-03-08T11:57:31;32.78;;;23.20;;
27412;SDS011;14871;52.702;5.230;2024-03-08T11:59:57;30.20;;;23.25;;
27412;SDS011;14871;52.702;5.230;2024-03-08T12:02:31;33.92;;;24.05;;
27412;SDS011;14871;52.702;5.230;2024-03-08T12:04:57;34.45;;;23.40;;
27412;SDS011;14871;52.702;5.230;2024-03-08T12:07:28;29.17;;;23.25;;
27412;SDS011;14871;52.702;5.230;2024-03-08T12:12:51;31.45;;;23.40;;
27412;SDS011;14871;52.702;5.230;2024-03-08T12:15:21;31.58;;;23.63;;
27412;SDS011;14871;52.702;5.230;2024-03-08T12:17:49;29.63;;;23.52;;
27412;SDS011;14871;52.702;5.230;2024-03-08T12:20:19;32.80;;;25.35;;
27412;SDS011;14871;52.702;5.230;2024-03-08T12:22:51;33.40;;;23.58;;
27412;SDS011;14871;52.702;5.230;2024-03-08T12:25:18;32.40;;;24.40;;
27412;SDS011;14871;52.702;5.230;2024-03-08T12:27:45;32.50;;;23.38;;
27412;SDS011;14871;52.702;5.230;2024-03-08T12:30:18;34.58;;;23.38;;
27412;SDS011;14871;52.702;5.230;2024-03-08T12:32:50;31.08;;;23.33;;
27412;SDS011;14871;52.702;5.230;2024-03-08T12:35:27;32.50;;;23.08;;
27412;SDS011;14871;52.702;5.230;2024-03-08T12:37:54;34.08;;;24.13;;
27412;SDS011;14871;52.702;5.230;2024-03-08T12:40:28;30.98;;;22.48;;
27412;SDS011;14871;52.702;5.230;2024-03-08T12:43:01;32.03;;;23.80;;
27412;SDS011;14871;52.702;5.230;2024-03-08T12:45:27;30.17;;;22.98;;
27412;SDS011;14871;52.702;5.230;2024-03-08T12:47:53;28.70;;;22.15;;
27412;SDS011;14871;52.702;5.230;2024-03-08T12:50:23;32.85;;;23.27;;
27412;SDS011;14871;52.702;5.230;2024-03-08T12:52:51;28.90;;;21.73;;
27412;SDS011;14871;52.702;5.230;2024-03-08T12:55:20;30.02;;;22.50;;
27412;SDS011;14871;52.702;5.230;2024-03-08T12:57:46;31.23;;;22.40;;
27412;SDS011;14871;52.702;5.230;2024-03-08T13:00:14;28.75;;;21.08;;
27412;SDS011;14871;52.702;5.230;2024-03-08T13:02:47;29.88;;;21.95;;
27412;SDS011;14871;52.702;5.230;2024-03-08T13:05:13;29.65;;;22.38;;
27412;SDS011;14871;52.702;5.230;2024-03-08T13:07:42;28.50;;;21.15;;
27412;SDS011;14871;52.702;5.230;2024-03-08T13:10:12;31.05;;;22.98;;
27412;SDS011;14871;52.702;5.230;2024-03-08T13:12:40;28.05;;;21.85;;
27412;SDS011;14871;52.702;5.230;2024-03-08T13:15:07;27.10;;;22.23;;
27412;SDS011;14871;52.702;5.230;2024-03-08T13:17:34;31.38;;;21.83;;
27412;SDS011;14871;52.702;5.230;2024-03-08T13:20:00;27.55;;;20.60;;
27412;SDS011;14871;52.702;5.230;2024-03-08T13:22:25;27.63;;;21.42;;
27412;SDS011;14871;52.702;5.230;2024-03-08T13:24:52;28.35;;;21.75;;
27412;SDS011;14871;52.702;5.230;2024-03-08T13:27:18;28.80;;;22.25;;
27412;SDS011;14871;52.702;5.230;2024-03-08T13:29:50;27.92;;;20.92;;
27412;SDS011;14871;52.702;5.230;2024-03-08T13:32:15;33.78;;;20.48;;
27412;SDS011;14871;52.702;5.230;2024-03-08T13:34:44;27.92;;;20.48;;
27412;SDS011;14871;52.702;5.230;2024-03-08T13:37:10;31.52;;;22.83;;
27412;SDS011;14871;52.702;5.230;2024-03-08T13:39:37;28.40;;;21.20;;
27412;SDS011;14871;52.702;5.230;2024-03-08T13:42:14;33.85;;;22.27;;
27412;SDS011;14871;52.702;5.230;2024-03-08T13:44:47;32.33;;;21.92;;
27412;SDS011;14871;52.702;5.230;2024-03-08T13:47:15;29.02;;;21.98;;
27412;SDS011;14871;52.702;5.230;2024-03-08T13:49:42;29.58;;;21.35;;
27412;SDS011;14871;52.702;5.230;2024-03-08T13:52:08;29.20;;;22.00;;
27412;SDS011;14871;52.702;5.230;2024-03-08T13:54:35;27.65;;;20.70;;
27412;SDS011;14871;52.702;5.230;2024-03-08T13:57:01;28.33;;;22.23;;
27412;SDS011;14871;52.702;5.230;2024-03-08T13:59:32;25.63;;;20.58;;
27412;SDS011;14871;52.702;5.230;2024-03-08T14:02:00;29.80;;;21.75;;
27412;SDS011;14871;52.702;5.230;2024-03-08T14:04:29;27.77;;;22.13;;
27412;SDS011;14871;52.702;5.230;2024-03-08T14:06:55;28.70;;;21.30;;
27412;SDS011;14871;52.702;5.230;2024-03-08T14:09:29;31.23;;;22.23;;
27412;SDS011;14871;52.702;5.230;2024-03-08T14:11:56;26.13;;;20.67;;
27412;SDS011;14871;52.702;5.230;2024-03-08T14:14:22;31.05;;;21.95;;
27412;SDS011;14871;52.702;5.230;2024-03-08T14:16:50;28.08;;;20.88;;
27412;SDS011;14871;52.702;5.230;2024-03-08T14:19:20;27.65;;;20.95;;
27412;SDS011;14871;52.702;5.230;2024-03-08T14:21:46;27.45;;;20.27;;
27412;SDS011;14871;52.702;5.230;2024-03-08T14:24:16;29.42;;;20.52;;
27412;SDS011;14871;52.702;5.230;2024-03-08T14:26:43;30.83;;;22.08;;
27412;SDS011;14871;52.702;5.230;2024-03-08T14:29:10;29.33;;;21.33;;
27412;SDS011;14871;52.702;5.230;2024-03-08T14:31:38;26.35;;;19.85;;
27412;SDS011;14871;52.702;5.230;2024-03-08T14:34:05;27.67;;;21.35;;
27412;SDS011;14871;52.702;5.230;2024-03-08T14:36:32;28.48;;;21.63;;
27412;SDS011;14871;52.702;5.230;2024-03-08T14:38:57;29.33;;;20.73;;
27412;SDS011;14871;52.702;5.230;2024-03-08T14:41:23;26.95;;;21.17;;
27412;SDS011;14871;52.702;5.230;2024-03-08T14:43:49;28.85;;;21.10;;
27412;SDS011;14871;52.702;5.230;2024-03-08T14:46:17;29.35;;;22.50;;
27412;SDS011;14871;52.702;5.230;2024-03-08T14:48:49;25.25;;;19.77;;
27412;SDS011;14871;52.702;5.230;2024-03-08T14:51:20;26.38;;;20.63;;
27412;SDS011;14871;52.702;5.230;2024-03-08T14:53:48;28.25;;;20.75;;
27412;SDS011;14871;52.702;5.230;2024-03-08T14:56:14;25.77;;;20.33;;
27412;SDS011;14871;52.702;5.230;2024-03-08T14:58:44;27.70;;;20.85;;
27412;SDS011;14871;52.702;5.230;2024-03-08T15:01:14;28.50;;;22.85;;
27412;SDS011;14871;52.702;5.230;2024-03-08T15:03:43;27.95;;;21.13;;
27412;SDS011;14871;52.702;5.230;2024-03-08T15:06:09;26.38;;;19.63;;
27412;SDS011;14871;52.702;5.230;2024-03-08T15:08:36;27.00;;;21.08;;
27412;SDS011;14871;52.702;5.230;2024-03-08T15:11:02;29.00;;;21.13;;
27412;SDS011;14871;52.702;5.230;2024-03-08T15:13:28;29.20;;;22.42;;
27412;SDS011;14871;52.702;5.230;2024-03-08T15:16:09;25.60;;;20.88;;
27412;SDS011;14871;52.702;5.230;2024-03-08T15:18:42;24.98;;;20.38;;
27412;SDS011;14871;52.702;5.230;2024-03-08T15:21:11;26.88;;;21.10;;
27412;SDS011;14871;52.702;5.230;2024-03-08T15:23:42;27.20;;;20.58;;
27412;SDS011;14871;52.702;5.230;2024-03-08T15:26:12;30.50;;;22.27;;
27412;SDS011;14871;52.702;5.230;2024-03-08T15:28:38;29.40;;;21.67;;
27412;SDS011;14871;52.702;5.230;2024-03-08T15:31:04;28.60;;;21.70;;
27412;SDS011;14871;52.702;5.230;2024-03-08T15:33:34;27.95;;;22.02;;
27412;SDS011;14871;52.702;5.230;2024-03-08T15:36:07;27.17;;;22.05;;
27412;SDS011;14871;52.702;5.230;2024-03-08T15:38:35;32.13;;;22.40;;
27412;SDS011;14871;52.702;5.230;2024-03-08T15:41:01;28.65;;;21.60;;
27412;SDS011;14871;52.702;5.230;2024-03-08T15:43:32;30.63;;;22.98;;
27412;SDS011;14871;52.702;5.230;2024-03-08T15:46:00;28.67;;;22.73;;
27412;SDS011;14871;52.702;5.230;2024-03-08T15:48:29;31.60;;;23.15;;
27412;SDS011;14871;52.702;5.230;2024-03-08T15:50:57;29.85;;;23.52;;
27412;SDS011;14871;52.702;5.230;2024-03-08T15:53:23;31.25;;;22.70;;
27412;SDS011;14871;52.702;5.230;2024-03-08T15:55:49;30.63;;;22.73;;
27412;SDS011;14871;52.702;5.230;2024-03-08T15:58:15;31.00;;;22.95;;
27412;SDS011;14871;52.702;5.230;2024-03-08T16:00:40;30.13;;;22.58;;
27412;SDS011;14871;52.702;5.230;2024-03-08T16:03:12;29.88;;;23.10;;
27412;SDS011;14871;52.702;5.230;2024-03-08T16:05:40;31.65;;;23.17;;
27412;SDS011;14871;52.702;5.230;2024-03-08T16:08:12;30.13;;;22.88;;
27412;SDS011;14871;52.702;5.230;2024-03-08T16:10:43;31.70;;;23.10;;
27412;SDS011;14871;52.702;5.230;2024-03-08T16:13:11;30.20;;;23.90;;
27412;SDS011;14871;52.702;5.230;2024-03-08T16:15:38;34.10;;;23.60;;
27412;SDS011;14871;52.702;5.230;2024-03-08T16:18:04;31.17;;;21.90;;
27412;SDS011;14871;52.702;5.230;2024-03-08T16:20:31;31.40;;;23.40;;
27412;SDS011;14871;52.702;5.230;2024-03-08T16:22:57;29.20;;;23.35;;
27412;SDS011;14871;52.702;5.230;2024-03-08T16:25:23;29.70;;;22.90;;
27412;SDS011;14871;52.702;5.230;2024-03-08T16:27:48;31.55;;;23.17;;
27412;SDS011;14871;52.702;5.230;2024-03-08T16:30:15;30.45;;;22.90;;
27412;SDS011;14871;52.702;5.230;2024-03-08T16:32:44;31.00;;;23.63;;
27412;SDS011;14871;52.702;5.230;2024-03-08T16:35:12;30.05;;;21.92;;
27412;SDS011;14871;52.702;5.230;2024-03-08T16:37:41;30.98;;;23.85;;
27412;SDS011;14871;52.702;5.230;2024-03-08T16:40:07;30.77;;;22.25;;
27412;SDS011;14871;52.702;5.230;2024-03-08T16:42:45;35.00;;;23.13;;
27412;SDS011;14871;52.702;5.230;2024-03-08T16:45:21;31.33;;;22.58;;
27412;SDS011;14871;52.702;5.230;2024-03-08T16:47:48;32.28;;;23.75;;
27412;SDS011;14871;52.702;5.230;2024-03-08T16:50:16;31.83;;;22.92;;
27412;SDS011;14871;52.702;5.230;2024-03-08T16:52:42;29.35;;;22.45;;
27412;SDS011;14871;52.702;5.230;2024-03-08T16:55:08;31.65;;;23.17;;
27412;SDS011;14871;52.702;5.230;2024-03-08T16:57:44;28.95;;;22.42;;
27412;SDS011;14871;52.702;5.230;2024-03-08T17:00:17;30.15;;;22.60;;
27412;SDS011;14871;52.702;5.230;2024-03-08T17:02:52;29.38;;;23.02;;
27412;SDS011;14871;52.702;5.230;2024-03-08T17:05:18;33.03;;;23.20;;
27412;SDS011;14871;52.702;5.230;2024-03-08T17:07:44;33.55;;;22.60;;
27412;SDS011;14871;52.702;5.230;2024-03-08T17:10:17;33.78;;;23.15;;
27412;SDS011;14871;52.702;5.230;2024-03-08T17:12:47;28.92;;;22.05;;